sensor_id;sensor_type;location;lat;lon;timestamp;pressure;altitude;pressure_sealevel;temperature;humidity
18022;BME280;9136;48.822;7.966;2023-04-29T00:01:46;99964.59;;;12.70;100.00
18022;BME280;9136;48.822;7.966;2023-04-29T00:04:35;99944.28;;;12.90;100.00
18022;BME280;9136;48.822;7.966;2023-04-29T00:07:24;99940.59;;;12.76;100.00
18022;BME280;9136;48.822;7.966;2023-04-29T00:10:12;99947.94;;;12.88;100.00
18022;BME280;9136;48.822;7.966;2023-04-29T00:13:00;99944.72;;;12.81;100.00
18022;BME280;9136;48.822;7.966;2023-04-29T00:15:48;99964.69;;;12.87;100.00
18022;BME280;9136;48.822;7.966;2023-04-29T00:18:36;99955.50;;;12.77;100.00
18022;BME280;9136;48.822;7.966;2023-04-29T00:21:24;99971.38;;;12.75;100.00
18022;BME280;9136;48.822;7.966;2023-04-29T00:24:14;99958.63;;;12.66;100.00
18022;BME280;9136;48.822;7.966;2023-04-29T00:27:02;99939.47;;;12.42;100.00
18022;BME280;9136;48.822;7.966;2023-04-29T00:29:51;99951.53;;;12.48;100.00
18022;BME280;9136;48.822;7.966;2023-04-29T00:32:39;99960.06;;;12.53;100.00
18022;BME280;9136;48.822;7.966;2023-04-29T00:35:26;99944.22;;;12.34;100.00
18022;BME280;9136;48.822;7.966;2023-04-29T00:38:14;99937.56;;;12.07;100.00
18022;BME280;9136;48.822;7.966;2023-04-29T00:41:03;99963.91;;;12.07;100.00
18022;BME280;9136;48.822;7.966;2023-04-29T00:43:51;99956.88;;;11.85;100.00
18022;BME280;9136;48.822;7.966;2023-04-29T00:46:39;99955.53;;;11.97;100.00
18022;BME280;9136;48.822;7.966;2023-04-29T00:49:27;99953.81;;;12.16;100.00
18022;BME280;9136;48.822;7.966;2023-04-29T00:52:16;99944.31;;;12.32;100.00
18022;BME280;9136;48.822;7.966;2023-04-29T00:55:05;99963.53;;;12.35;100.00
18022;BME280;9136;48.822;7.966;2023-04-29T00:57:56;99953.13;;;12.31;100.00
18022;BME280;9136;48.822;7.966;2023-04-29T01:00:43;99965.97;;;12.39;100.00
18022;BME280;9136;48.822;7.966;2023-04-29T01:03:32;99948.56;;;12.35;100.00
18022;BME280;9136;48.822;7.966;2023-04-29T01:06:28;99940.34;;;12.43;100.00
18022;BME280;9136;48.822;7.966;2023-04-29T01:09:26;99962.00;;;12.49;100.00
18022;BME280;9136;48.822;7.966;2023-04-29T01:12:21;99951.16;;;12.37;100.00
18022;BME280;9136;48.822;7.966;2023-04-29T01:15:20;99963.25;;;12.41;100.00
18022;BME280;9136;48.822;7.966;2023-04-29T01:18:10;99941.75;;;12.31;100.00
18022;BME280;9136;48.822;7.966;2023-04-29T01:20:59;99944.63;;;12.25;100.00
18022;BME280;9136;48.822;7.966;2023-04-29T01:23:49;99952.09;;;12.36;100.00
18022;BME280;9136;48.822;7.966;2023-04-29T01:26:45;99959.09;;;12.35;100.00
18022;BME280;9136;48.822;7.966;2023-04-29T01:29:42;99975.50;;;12.42;100.00
18022;BME280;9136;48.822;7.966;2023-04-29T01:32:41;99964.63;;;12.49;100.00
18022;BME280;9136;48.822;7.966;2023-04-29T01:35:41;99973.78;;;12.61;100.00
18022;BME280;9136;48.822;7.966;2023-04-29T01:38:36;99974.78;;;12.58;100.00
18022;BME280;9136;48.822;7.966;2023-04-29T01:41:34;99988.81;;;12.59;100.00
18022;BME280;9136;48.822;7.966;2023-04-29T01:44:28;99974.06;;;12.55;100.00
18022;BME280;9136;48.822;7.966;2023-04-29T01:47:17;99976.88;;;12.50;100.00
18022;BME280;9136;48.822;7.966;2023-04-29T01:50:06;99986.59;;;12.69;100.00
18022;BME280;9136;48.822;7.966;2023-04-29T01:52:53;99962.25;;;12.43;100.00
18022;BME280;9136;48.822;7.966;2023-04-29T01:55:42;99985.91;;;12.65;100.00
18022;BME280;9136;48.822;7.966;2023-04-29T01:58:32;99990.09;;;12.69;100.00
18022;BME280;9136;48.822;7.966;2023-04-29T02:01:19;99976.47;;;12.59;100.00
18022;BME280;9136;48.822;7.966;2023-04-29T02:04:08;99987.78;;;12.61;100.00
18022;BME280;9136;48.822;7.966;2023-04-29T02:06:56;99982.94;;;12.52;100.00
18022;BME280;9136;48.822;7.966;2023-04-29T02:09:44;99962.09;;;12.48;100.00
18022;BME280;9136;48.822;7.966;2023-04-29T02:12:32;99977.19;;;12.63;100.00
18022;BME280;9136;48.822;7.966;2023-04-29T02:15:21;99975.88;;;12.53;100.00
18022;BME280;9136;48.822;7.966;2023-04-29T02:18:09;99967.91;;;12.54;100.00
18022;BME280;9136;48.822;7.966;2023-04-29T02:20:59;99975.88;;;12.53;100.00
18022;BME280;9136;48.822;7.966;2023-04-29T02:23:47;99990.00;;;12.52;100.00
18022;BME280;9136;48.822;7.966;2023-04-29T02:26:35;99974.13;;;12.33;100.00
18022;BME280;9136;48.822;7.966;2023-04-29T02:29:23;99997.44;;;12.42;100.00
18022;BME280;9136;48.822;7.966;2023-04-29T02:32:13;100010.22;;;12.51;100.00
18022;BME280;9136;48.822;7.966;2023-04-29T02:35:05;99987.91;;;12.40;100.00
18022;BME280;9136;48.822;7.966;2023-04-29T02:37:53;99986.66;;;12.28;100.00
18022;BME280;9136;48.822;7.966;2023-04-29T02:40:41;100012.94;;;12.29;100.00
18022;BME280;9136;48.822;7.966;2023-04-29T02:43:29;100002.72;;;12.22;100.00
18022;BME280;9136;48.822;7.966;2023-04-29T02:46:17;99991.66;;;12.14;100.00
18022;BME280;9136;48.822;7.966;2023-04-29T02:49:06;100005.59;;;12.16;100.00
18022;BME280;9136;48.822;7.966;2023-04-29T02:51:55;100015.41;;;12.12;100.00
18022;BME280;9136;48.822;7.966;2023-04-29T02:54:43;99999.22;;;12.01;100.00
18022;BME280;9136;48.822;7.966;2023-04-29T02:57:31;100010.69;;;12.00;100.00
18022;BME280;9136;48.822;7.966;2023-04-29T03:00:19;100033.38;;;12.02;100.00
18022;BME280;9136;48.822;7.966;2023-04-29T03:03:07;100016.50;;;11.86;100.00
18022;BME280;9136;48.822;7.966;2023-04-29T03:05:57;100010.84;;;11.73;100.00
18022;BME280;9136;48.822;7.966;2023-04-29T03:08:45;100008.47;;;11.67;100.00
18022;BME280;9136;48.822;7.966;2023-04-29T03:11:33;100001.94;;;11.56;100.00
18022;BME280;9136;48.822;7.966;2023-04-29T03:14:20;100020.25;;;11.59;100.00
18022;BME280;9136;48.822;7.966;2023-04-29T03:17:08;100025.44;;;11.60;100.00
18022;BME280;9136;48.822;7.966;2023-04-29T03:19:56;100007.88;;;11.39;100.00
18022;BME280;9136;48.822;7.966;2023-04-29T03:22:45;100037.31;;;11.49;100.00
18022;BME280;9136;48.822;7.966;2023-04-29T03:25:33;100011.03;;;11.25;100.00
18022;BME280;9136;48.822;7.966;2023-04-29T03:28:22;100019.72;;;11.27;100.00
18022;BME280;9136;48.822;7.966;2023-04-29T03:31:10;100004.91;;;11.03;100.00
18022;BME280;9136;48.822;7.966;2023-04-29T03:33:58;100019.53;;;11.10;100.00
18022;BME280;9136;48.822;7.966;2023-04-29T03:36:46;100005.25;;;10.94;100.00
18022;BME280;9136;48.822;7.966;2023-04-29T03:39:35;100020.66;;;11.03;100.00
18022;BME280;9136;48.822;7.966;2023-04-29T03:42:23;100026.84;;;11.02;100.00
18022;BME280;9136;48.822;7.966;2023-04-29T03:45:11;100004.59;;;10.87;100.00
18022;BME280;9136;48.822;7.966;2023-04-29T03:47:59;100027.13;;;10.94;100.00
18022;BME280;9136;48.822;7.966;2023-04-29T03:50:48;100039.84;;;11.05;100.00
18022;BME280;9136;48.822;7.966;2023-04-29T03:53:36;100022.16;;;10.86;100.00
18022;BME280;9136;48.822;7.966;2023-04-29T03:56:26;100054.03;;;11.01;100.00
18022;BME280;9136;48.822;7.966;2023-04-29T03:59:14;100048.31;;;10.89;100.00
18022;BME280;9136;48.822;7.966;2023-04-29T04:02:02;100072.19;;;10.83;100.00
18022;BME280;9136;48.822;7.966;2023-04-29T04:04:50;100058.63;;;10.71;100.00
18022;BME280;9136;48.822;7.966;2023-04-29T04:07:40;100074.56;;;10.66;100.00
18022;BME280;9136;48.822;7.966;2023-04-29T04:10:28;100073.44;;;10.48;100.00
18022;BME280;9136;48.822;7.966;2023-04-29T04:13:17;100065.25;;;10.31;100.00
18022;BME280;9136;48.822;7.966;2023-04-29T04:16:05;100085.59;;;10.26;100.00
18022;BME280;9136;48.822;7.966;2023-04-29T04:18:53;100067.38;;;10.20;100.00
18022;BME280;9136;48.822;7.966;2023-04-29T04:21:41;100069.13;;;10.19;100.00
18022;BME280;9136;48.822;7.966;2023-04-29T04:24:28;100063.44;;;10.07;100.00
18022;BME280;9136;48.822;7.966;2023-04-29T04:27:16;100066.31;;;9.99;100.00
18022;BME280;9136;48.822;7.966;2023-04-29T04:30:07;100066.63;;;9.90;100.00
18022;BME280;9136;48.822;7.966;2023-04-29T04:32:55;100094.72;;;9.86;100.00
18022;BME280;9136;48.822;7.966;2023-04-29T04:35:43;100102.59;;;9.86;100.00
18022;BME280;9136;48.822;7.966;2023-04-29T04:38:30;100082.34;;;9.90;100.00
18022;BME280;9136;48.822;7.966;2023-04-29T04:41:18;100109.16;;;9.99;100.00
18022;BME280;9136;48.822;7.966;2023-04-29T04:44:06;100073.88;;;9.82;100.00
18022;BME280;9136;48.822;7.966;2023-04-29T04:46:55;100087.50;;;9.93;100.00
18022;BME280;9136;48.822;7.966;2023-04-29T04:49:43;100097.75;;;10.00;100.00
18022;BME280;9136;48.822;7.966;2023-04-29T04:52:31;100081.31;;;9.95;100.00
18022;BME280;9136;48.822;7.966;2023-04-29T04:55:19;100110.00;;;10.28;100.00
18022;BME280;9136;48.822;7.966;2023-04-29T04:58:06;100115.69;;;10.41;100.00
18022;BME280;9136;48.822;7.966;2023-04-29T05:00:54;100093.84;;;10.14;100.00
18022;BME280;9136;48.822;7.966;2023-04-29T05:03:43;100099.09;;;10.14;100.00
18022;BME280;9136;48.822;7.966;2023-04-29T05:06:31;100125.59;;;10.32;100.00
18022;BME280;9136;48.822;7.966;2023-04-29T05:09:19;100136.16;;;10.31;100.00
18022;BME280;9136;48.822;7.966;2023-04-29T05:12:07;100124.78;;;10.30;100.00
18022;BME280;9136;48.822;7.966;2023-04-29T05:14:55;100116.19;;;10.27;100.00
18022;BME280;9136;48.822;7.966;2023-04-29T05:17:42;100134.06;;;10.42;100.00
18022;BME280;9136;48.822;7.966;2023-04-29T05:20:32;100109.84;;;10.32;100.00
18022;BME280;9136;48.822;7.966;2023-04-29T05:23:19;100119.16;;;10.43;100.00
18022;BME280;9136;48.822;7.966;2023-04-29T05:26:08;100137.25;;;10.50;100.00
18022;BME280;9136;48.822;7.966;2023-04-29T05:28:56;100142.66;;;10.72;100.00
18022;BME280;9136;48.822;7.966;2023-04-29T05:31:44;100155.56;;;10.78;100.00
18022;BME280;9136;48.822;7.966;2023-04-29T05:34:31;100143.03;;;10.86;100.00
18022;BME280;9136;48.822;7.966;2023-04-29T05:37:21;100128.56;;;10.75;100.00
18022;BME280;9136;48.822;7.966;2023-04-29T05:40:09;100141.44;;;10.82;100.00
18022;BME280;9136;48.822;7.966;2023-04-29T05:42:56;100142.22;;;10.84;100.00
18022;BME280;9136;48.822;7.966;2023-04-29T05:45:46;100129.88;;;10.86;100.00
18022;BME280;9136;48.822;7.966;2023-04-29T05:48:33;100170.38;;;11.06;100.00
18022;BME280;9136;48.822;7.966;2023-04-29T05:51:21;100169.59;;;11.04;100.00
18022;BME280;9136;48.822;7.966;2023-04-29T05:54:10;100171.28;;;11.05;100.00
18022;BME280;9136;48.822;7.966;2023-04-29T05:56:58;100176.03;;;11.18;100.00
18022;BME280;9136;48.822;7.966;2023-04-29T05:59:47;100162.38;;;11.09;100.00
18022;BME280;9136;48.822;7.966;2023-04-29T06:02:35;100211.41;;;11.35;100.00
18022;BME280;9136;48.822;7.966;2023-04-29T06:05:25;100189.88;;;11.49;100.00
18022;BME280;9136;48.822;7.966;2023-04-29T06:08:12;100175.91;;;11.46;100.00
18022;BME280;9136;48.822;7.966;2023-04-29T06:11:02;100195.88;;;11.75;100.00
18022;BME280;9136;48.822;7.966;2023-04-29T06:13:50;100200.41;;;11.72;100.00
18022;BME280;9136;48.822;7.966;2023-04-29T06:16:38;100200.53;;;11.92;100.00
18022;BME280;9136;48.822;7.966;2023-04-29T06:19:26;100193.47;;;11.93;100.00
18022;BME280;9136;48.822;7.966;2023-04-29T06:22:14;100190.59;;;11.75;100.00
18022;BME280;9136;48.822;7.966;2023-04-29T06:25:03;100207.44;;;11.95;100.00
18022;BME280;9136;48.822;7.966;2023-04-29T06:27:52;100220.03;;;12.10;100.00
18022;BME280;9136;48.822;7.966;2023-04-29T06:30:40;100196.13;;;11.93;100.00
18022;BME280;9136;48.822;7.966;2023-04-29T06:33:27;100186.16;;;12.01;100.00
18022;BME280;9136;48.822;7.966;2023-04-29T06:36:15;100237.72;;;12.28;100.00
18022;BME280;9136;48.822;7.966;2023-04-29T06:39:03;100194.53;;;12.11;100.00
18022;BME280;9136;48.822;7.966;2023-04-29T06:41:51;100200.66;;;12.11;100.00
18022;BME280;9136;48.822;7.966;2023-04-29T06:44:40;100205.06;;;12.11;100.00
18022;BME280;9136;48.822;7.966;2023-04-29T06:47:28;100197.66;;;12.20;100.00
18022;BME280;9136;48.822;7.966;2023-04-29T06:50:16;100212.13;;;12.32;100.00
18022;BME280;9136;48.822;7.966;2023-04-29T06:53:04;100208.97;;;12.44;100.00
18022;BME280;9136;48.822;7.966;2023-04-29T06:55:52;100227.41;;;12.46;100.00
18022;BME280;9136;48.822;7.966;2023-04-29T06:58:39;100223.94;;;12.44;100.00
18022;BME280;9136;48.822;7.966;2023-04-29T07:01:29;100241.72;;;12.60;100.00
18022;BME280;9136;48.822;7.966;2023-04-29T07:04:16;100238.28;;;12.58;100.00
18022;BME280;9136;48.822;7.966;2023-04-29T07:07:04;100242.88;;;12.75;100.00
18022;BME280;9136;48.822;7.966;2023-04-29T07:09:52;100232.25;;;12.77;100.00
18022;BME280;9136;48.822;7.966;2023-04-29T07:12:40;100228.97;;;12.92;100.00
18022;BME280;9136;48.822;7.966;2023-04-29T07:15:28;100221.72;;;12.77;100.00
18022;BME280;9136;48.822;7.966;2023-04-29T07:18:18;100209.66;;;12.92;100.00
18022;BME280;9136;48.822;7.966;2023-04-29T07:21:05;100230.03;;;13.08;100.00
18022;BME280;9136;48.822;7.966;2023-04-29T07:23:53;100227.78;;;12.99;100.00
18022;BME280;9136;48.822;7.966;2023-04-29T07:26:42;100232.22;;;12.99;100.00
18022;BME280;9136;48.822;7.966;2023-04-29T07:29:29;100247.56;;;13.09;100.00
18022;BME280;9136;48.822;7.966;2023-04-29T07:32:17;100266.69;;;13.36;100.00
18022;BME280;9136;48.822;7.966;2023-04-29T07:35:07;100240.03;;;13.42;100.00
18022;BME280;9136;48.822;7.966;2023-04-29T07:37:55;100254.91;;;13.64;100.00
18022;BME280;9136;48.822;7.966;2023-04-29T07:40:43;100239.75;;;13.49;100.00
18022;BME280;9136;48.822;7.966;2023-04-29T07:43:31;100277.25;;;13.75;100.00
18022;BME280;9136;48.822;7.966;2023-04-29T07:46:19;100268.00;;;13.86;100.00
18022;BME280;9136;48.822;7.966;2023-04-29T07:49:07;100245.38;;;13.80;100.00
18022;BME280;9136;48.822;7.966;2023-04-29T07:51:57;100254.34;;;13.76;100.00
18022;BME280;9136;48.822;7.966;2023-04-29T07:54:45;100253.50;;;13.94;100.00
18022;BME280;9136;48.822;7.966;2023-04-29T07:57:33;100269.00;;;14.40;100.00
18022;BME280;9136;48.822;7.966;2023-04-29T08:00:21;100272.88;;;14.32;100.00
18022;BME280;9136;48.822;7.966;2023-04-29T08:03:09;100280.38;;;14.60;100.00
18022;BME280;9136;48.822;7.966;2023-04-29T08:06:00;100292.50;;;15.01;100.00
18022;BME280;9136;48.822;7.966;2023-04-29T08:08:50;100307.66;;;14.97;100.00
18022;BME280;9136;48.822;7.966;2023-04-29T08:11:37;100279.94;;;14.51;100.00
18022;BME280;9136;48.822;7.966;2023-04-29T08:14:25;100286.31;;;14.83;100.00
18022;BME280;9136;48.822;7.966;2023-04-29T08:17:13;100293.03;;;15.07;100.00
18022;BME280;9136;48.822;7.966;2023-04-29T08:20:01;100307.09;;;14.91;100.00
18022;BME280;9136;48.822;7.966;2023-04-29T08:22:49;100296.59;;;14.89;100.00
18022;BME280;9136;48.822;7.966;2023-04-29T08:25:41;100287.63;;;14.74;100.00
18022;BME280;9136;48.822;7.966;2023-04-29T08:28:30;100273.44;;;15.29;100.00
18022;BME280;9136;48.822;7.966;2023-04-29T08:31:18;100299.59;;;15.17;100.00
18022;BME280;9136;48.822;7.966;2023-04-29T08:34:06;100300.47;;;14.82;100.00
18022;BME280;9136;48.822;7.966;2023-04-29T08:36:56;100289.50;;;14.53;100.00
18022;BME280;9136;48.822;7.966;2023-04-29T08:39:43;100289.66;;;14.50;100.00
18022;BME280;9136;48.822;7.966;2023-04-29T08:42:35;100278.41;;;14.64;100.00
18022;BME280;9136;48.822;7.966;2023-04-29T08:45:23;100277.16;;;14.54;100.00
18022;BME280;9136;48.822;7.966;2023-04-29T08:48:12;100277.03;;;14.74;100.00
18022;BME280;9136;48.822;7.966;2023-04-29T08:51:00;100309.22;;;14.65;100.00
18022;BME280;9136;48.822;7.966;2023-04-29T08:53:49;100305.94;;;14.60;100.00
18022;BME280;9136;48.822;7.966;2023-04-29T08:56:37;100302.97;;;14.85;100.00
18022;BME280;9136;48.822;7.966;2023-04-29T08:59:28;100321.41;;;14.86;100.00
18022;BME280;9136;48.822;7.966;2023-04-29T09:02:17;100291.47;;;15.21;100.00
18022;BME280;9136;48.822;7.966;2023-04-29T09:05:08;100315.44;;;15.87;100.00
18022;BME280;9136;48.822;7.966;2023-04-29T09:07:56;100298.72;;;15.69;100.00
18022;BME280;9136;48.822;7.966;2023-04-29T09:10:49;100315.56;;;15.68;100.00
18022;BME280;9136;48.822;7.966;2023-04-29T09:13:40;100300.97;;;15.59;100.00
18022;BME280;9136;48.822;7.966;2023-04-29T09:16:30;100304.16;;;15.49;100.00
18022;BME280;9136;48.822;7.966;2023-04-29T09:19:30;100301.03;;;15.58;100.00
18022;BME280;9136;48.822;7.966;2023-04-29T09:22:24;100325.16;;;16.19;100.00
18022;BME280;9136;48.822;7.966;2023-04-29T09:25:21;100308.53;;;16.33;100.00
18022;BME280;9136;48.822;7.966;2023-04-29T09:28:14;100312.88;;;16.50;92.92
18022;BME280;9136;48.822;7.966;2023-04-29T09:31:02;100318.25;;;16.48;95.50
18022;BME280;9136;48.822;7.966;2023-04-29T09:33:56;100303.00;;;16.05;93.62
18022;BME280;9136;48.822;7.966;2023-04-29T09:36:45;100304.53;;;16.09;93.99
18022;BME280;9136;48.822;7.966;2023-04-29T09:39:38;100323.25;;;15.72;99.26
18022;BME280;9136;48.822;7.966;2023-04-29T09:42:28;100328.88;;;15.99;100.00
18022;BME280;9136;48.822;7.966;2023-04-29T09:45:32;100315.19;;;15.91;99.27
18022;BME280;9136;48.822;7.966;2023-04-29T09:48:31;100322.50;;;16.03;99.32
18022;BME280;9136;48.822;7.966;2023-04-29T09:51:36;100341.94;;;16.36;91.47
18022;BME280;9136;48.822;7.966;2023-04-29T09:54:51;100336.38;;;16.40;92.26
18022;BME280;9136;48.822;7.966;2023-04-29T09:57:41;100308.78;;;16.44;88.30
18022;BME280;9136;48.822;7.966;2023-04-29T10:00:30;100298.59;;;16.68;94.88
18022;BME280;9136;48.822;7.966;2023-04-29T10:03:27;100320.88;;;16.81;89.41
18022;BME280;9136;48.822;7.966;2023-04-29T10:06:36;100291.25;;;16.73;83.34
18022;BME280;9136;48.822;7.966;2023-04-29T10:09:32;100296.53;;;16.57;85.78
18022;BME280;9136;48.822;7.966;2023-04-29T10:12:23;100301.06;;;16.87;81.88
18022;BME280;9136;48.822;7.966;2023-04-29T10:15:20;100305.38;;;16.90;78.36
18022;BME280;9136;48.822;7.966;2023-04-29T10:18:13;100297.13;;;17.24;73.53
18022;BME280;9136;48.822;7.966;2023-04-29T10:21:07;100285.88;;;17.93;77.33
18022;BME280;9136;48.822;7.966;2023-04-29T10:23:58;100304.84;;;18.44;89.01
18022;BME280;9136;48.822;7.966;2023-04-29T10:26:50;100306.44;;;18.33;68.51
18022;BME280;9136;48.822;7.966;2023-04-29T10:29:49;100298.41;;;17.91;70.07
18022;BME280;9136;48.822;7.966;2023-04-29T10:32:51;100321.75;;;17.56;67.88
18022;BME280;9136;48.822;7.966;2023-04-29T10:35:42;100280.63;;;16.89;67.31
18022;BME280;9136;48.822;7.966;2023-04-29T10:38:39;100315.44;;;16.99;69.17
18022;BME280;9136;48.822;7.966;2023-04-29T10:41:41;100305.94;;;17.25;72.24
18022;BME280;9136;48.822;7.966;2023-04-29T10:45:19;100280.16;;;17.57;60.77
18022;BME280;9136;48.822;7.966;2023-04-29T10:48:15;100283.34;;;18.33;60.29
18022;BME280;9136;48.822;7.966;2023-04-29T10:51:09;100310.19;;;18.98;57.82
18022;BME280;9136;48.822;7.966;2023-04-29T11:04:03;100268.03;;;16.77;70.52
18022;BME280;9136;48.822;7.966;2023-04-29T11:07:15;100280.44;;;16.92;73.25
18022;BME280;9136;48.822;7.966;2023-04-29T11:10:14;100286.59;;;16.93;69.11
18022;BME280;9136;48.822;7.966;2023-04-29T11:13:27;100275.16;;;17.06;67.10
18022;BME280;9136;48.822;7.966;2023-04-29T11:16:47;100309.56;;;18.53;66.52
18022;BME280;9136;48.822;7.966;2023-04-29T11:24:15;100285.91;;;18.49;55.53
18022;BME280;9136;48.822;7.966;2023-04-29T11:27:21;100276.47;;;18.02;61.25
18022;BME280;9136;48.822;7.966;2023-04-29T11:30:14;100297.59;;;18.46;58.11
18022;BME280;9136;48.822;7.966;2023-04-29T11:33:23;100279.13;;;18.02;57.77
18022;BME280;9136;48.822;7.966;2023-04-29T11:36:16;100280.09;;;18.15;58.71
18022;BME280;9136;48.822;7.966;2023-04-29T11:42:04;100299.19;;;18.63;58.09
18022;BME280;9136;48.822;7.966;2023-04-29T11:45:00;100304.38;;;19.19;58.57
18022;BME280;9136;48.822;7.966;2023-04-29T11:48:35;100286.53;;;20.22;53.57
18022;BME280;9136;48.822;7.966;2023-04-29T11:55:47;100289.41;;;21.17;50.65
18022;BME280;9136;48.822;7.966;2023-04-29T12:06:15;100318.09;;;21.61;47.12
18022;BME280;9136;48.822;7.966;2023-04-29T12:09:47;100298.28;;;20.07;50.30
18022;BME280;9136;48.822;7.966;2023-04-29T12:12:57;100301.19;;;19.13;52.36
18022;BME280;9136;48.822;7.966;2023-04-29T12:16:00;100283.16;;;19.57;52.92
18022;BME280;9136;48.822;7.966;2023-04-29T12:19:11;100285.56;;;19.22;55.04
18022;BME280;9136;48.822;7.966;2023-04-29T12:22:15;100305.41;;;19.30;53.91
18022;BME280;9136;48.822;7.966;2023-04-29T12:25:23;100289.69;;;18.73;56.09
18022;BME280;9136;48.822;7.966;2023-04-29T12:28:16;100288.81;;;18.03;56.16
18022;BME280;9136;48.822;7.966;2023-04-29T12:31:04;100289.88;;;18.00;57.89
18022;BME280;9136;48.822;7.966;2023-04-29T12:33:53;100290.19;;;17.66;69.97
18022;BME280;9136;48.822;7.966;2023-04-29T12:36:57;100277.00;;;17.64;71.81
18022;BME280;9136;48.822;7.966;2023-04-29T12:40:19;100285.13;;;17.33;86.58
18022;BME280;9136;48.822;7.966;2023-04-29T12:43:10;100280.06;;;16.98;100.00
18022;BME280;9136;48.822;7.966;2023-04-29T12:46:06;100285.00;;;16.74;100.00
18022;BME280;9136;48.822;7.966;2023-04-29T12:48:58;100282.94;;;16.48;100.00
18022;BME280;9136;48.822;7.966;2023-04-29T12:52:05;100300.56;;;16.33;100.00
18022;BME280;9136;48.822;7.966;2023-04-29T12:54:55;100297.16;;;16.31;100.00
18022;BME280;9136;48.822;7.966;2023-04-29T12:57:46;100308.50;;;16.17;100.00
18022;BME280;9136;48.822;7.966;2023-04-29T13:00:34;100306.25;;;15.94;100.00
18022;BME280;9136;48.822;7.966;2023-04-29T13:03:25;100330.31;;;15.89;100.00
18022;BME280;9136;48.822;7.966;2023-04-29T13:06:19;100315.25;;;15.74;100.00
18022;BME280;9136;48.822;7.966;2023-04-29T13:09:10;100299.97;;;15.62;100.00
18022;BME280;9136;48.822;7.966;2023-04-29T13:12:04;100300.78;;;15.64;100.00
18022;BME280;9136;48.822;7.966;2023-04-29T13:14:56;100325.13;;;15.70;100.00
18022;BME280;9136;48.822;7.966;2023-04-29T13:17:45;100309.72;;;15.61;100.00
18022;BME280;9136;48.822;7.966;2023-04-29T13:20:34;100336.56;;;15.71;100.00
18022;BME280;9136;48.822;7.966;2023-04-29T13:23:48;100324.34;;;15.68;100.00
18022;BME280;9136;48.822;7.966;2023-04-29T13:26:43;100304.56;;;15.58;100.00
18022;BME280;9136;48.822;7.966;2023-04-29T13:29:33;100341.88;;;15.71;100.00
18022;BME280;9136;48.822;7.966;2023-04-29T13:32:24;100331.25;;;15.54;100.00
18022;BME280;9136;48.822;7.966;2023-04-29T13:35:17;100300.13;;;15.41;100.00
18022;BME280;9136;48.822;7.966;2023-04-29T13:38:05;100325.66;;;15.42;100.00
18022;BME280;9136;48.822;7.966;2023-04-29T13:40:53;100312.09;;;15.31;100.00
18022;BME280;9136;48.822;7.966;2023-04-29T13:43:42;100341.22;;;15.49;100.00
18022;BME280;9136;48.822;7.966;2023-04-29T13:46:35;100328.47;;;15.39;100.00
18022;BME280;9136;48.822;7.966;2023-04-29T13:49:25;100311.63;;;15.23;100.00
18022;BME280;9136;48.822;7.966;2023-04-29T13:52:15;100336.88;;;15.30;100.00
18022;BME280;9136;48.822;7.966;2023-04-29T13:55:04;100323.63;;;15.13;100.00
18022;BME280;9136;48.822;7.966;2023-04-29T13:57:52;100332.81;;;15.23;100.00
18022;BME280;9136;48.822;7.966;2023-04-29T14:00:40;100331.41;;;15.16;100.00
18022;BME280;9136;48.822;7.966;2023-04-29T14:03:30;100350.09;;;15.30;100.00
18022;BME280;9136;48.822;7.966;2023-04-29T14:06:28;100333.72;;;15.05;100.00
18022;BME280;9136;48.822;7.966;2023-04-29T14:09:17;100339.50;;;15.13;100.00
18022;BME280;9136;48.822;7.966;2023-04-29T14:12:06;100330.16;;;15.06;100.00
18022;BME280;9136;48.822;7.966;2023-04-29T14:14:55;100349.75;;;15.02;100.00
18022;BME280;9136;48.822;7.966;2023-04-29T14:17:47;100365.94;;;15.13;100.00
18022;BME280;9136;48.822;7.966;2023-04-29T14:20:37;100337.81;;;14.93;100.00
18022;BME280;9136;48.822;7.966;2023-04-29T14:23:31;100372.34;;;15.09;100.00
18022;BME280;9136;48.822;7.966;2023-04-29T14:26:24;100352.69;;;14.96;100.00
18022;BME280;9136;48.822;7.966;2023-04-29T14:29:17;100336.03;;;14.94;100.00
18022;BME280;9136;48.822;7.966;2023-04-29T14:32:07;100354.28;;;15.00;100.00
18022;BME280;9136;48.822;7.966;2023-04-29T14:35:05;100368.38;;;15.17;100.00
18022;BME280;9136;48.822;7.966;2023-04-29T14:37:54;100354.84;;;15.06;100.00
18022;BME280;9136;48.822;7.966;2023-04-29T14:40:44;100359.88;;;15.11;100.00
18022;BME280;9136;48.822;7.966;2023-04-29T14:43:34;100379.91;;;15.16;100.00
18022;BME280;9136;48.822;7.966;2023-04-29T14:46:22;100370.22;;;14.98;100.00
18022;BME280;9136;48.822;7.966;2023-04-29T14:49:11;100393.72;;;15.04;100.00
18022;BME280;9136;48.822;7.966;2023-04-29T14:51:59;100367.66;;;14.97;100.00
18022;BME280;9136;48.822;7.966;2023-04-29T14:54:49;100368.97;;;15.05;100.00
18022;BME280;9136;48.822;7.966;2023-04-29T14:57:51;100365.06;;;14.95;100.00
18022;BME280;9136;48.822;7.966;2023-04-29T15:00:39;100363.91;;;15.01;100.00
18022;BME280;9136;48.822;7.966;2023-04-29T15:03:28;100367.41;;;15.01;100.00
18022;BME280;9136;48.822;7.966;2023-04-29T15:06:18;100380.72;;;15.00;100.00
18022;BME280;9136;48.822;7.966;2023-04-29T15:09:06;100379.59;;;14.86;100.00
18022;BME280;9136;48.822;7.966;2023-04-29T15:11:55;100379.81;;;14.82;100.00
18022;BME280;9136;48.822;7.966;2023-04-29T15:14:48;100381.38;;;14.86;100.00
18022;BME280;9136;48.822;7.966;2023-04-29T15:17:38;100375.38;;;14.82;100.00
18022;BME280;9136;48.822;7.966;2023-04-29T15:20:26;100399.25;;;15.00;100.00
18022;BME280;9136;48.822;7.966;2023-04-29T15:23:15;100392.25;;;14.99;100.00
18022;BME280;9136;48.822;7.966;2023-04-29T15:26:03;100385.38;;;14.95;100.00
18022;BME280;9136;48.822;7.966;2023-04-29T15:28:52;100387.81;;;14.99;100.00